Time;durP1;ratioP1;P1;durP2;ratioP2;P2;SDS_P1;SDS_P2;PMS_P1;PMS_P2;Temp;Humidity;BMP_temperature;BMP_pressure;BME280_temperature;BME280_humidity;BME280_pressure;Samples;Min_cycle;Max_cycle;Signal;HPM_P1;HPM_P2
2021/09/29 00:00:44;;;;;;;15.60;12.45;;;;;;;17.57;87.74;100770.91;5130665;27;20382;-66
2021/09/29 00:03:10;;;;;;;15.15;11.45;;;;;;;17.57;87.78;100768.19;5130421;27;20015;-66
2021/09/29 00:05:38;;;;;;;22.50;12.98;;;;;;;17.54;88.37;100761.25;5130219;27;20011;-66
2021/09/29 00:08:04;;;;;;;16.70;11.95;;;;;;;17.51;88.40;100761.59;5130040;27;20394;-66
2021/09/29 00:10:30;;;;;;;16.10;12.02;;;;;;;17.50;88.36;100772.59;5130327;27;20103;-66
2021/09/29 00:12:55;;;;;;;14.00;11.10;;;;;;;17.48;88.22;100772.78;5130280;27;20027;-66
2021/09/29 00:15:21;;;;;;;17.90;12.18;;;;;;;17.46;88.56;100769.41;5130255;28;20023;-66
2021/09/29 00:17:46;;;;;;;17.10;11.88;;;;;;;17.43;88.17;100766.16;5130578;27;20043;-66
2021/09/29 00:20:14;;;;;;;18.02;11.95;;;;;;;17.41;87.81;100765.47;5130264;27;20075;-66
2021/09/29 00:22:40;;;;;;;14.85;11.98;;;;;;;17.38;87.50;100768.50;5128542;27;20034;-66
2021/09/29 00:25:08;;;;;;;15.80;12.60;;;;;;;17.41;87.51;100766.28;5130398;27;20023;-66
2021/09/29 00:27:35;;;;;;;17.25;12.13;;;;;;;17.41;87.53;100773.59;5130105;27;20066;-66
2021/09/29 00:30:04;;;;;;;18.75;12.75;;;;;;;17.38;87.45;100772.06;5130173;27;20015;-66
2021/09/29 00:32:30;;;;;;;17.63;12.73;;;;;;;17.36;87.43;100773.25;5132074;27;20038;-66
2021/09/29 00:34:56;;;;;;;15.73;12.43;;;;;;;17.35;87.40;100771.56;5133679;27;20664;-66
2021/09/29 00:37:21;;;;;;;17.40;13.10;;;;;;;17.34;87.63;100772.56;5133672;27;20150;-66
2021/09/29 00:39:47;;;;;;;19.85;13.63;;;;;;;17.30;87.88;100771.19;5132822;27;20394;-66
2021/09/29 00:42:12;;;;;;;21.77;14.00;;;;;;;17.28;88.54;100762.41;5133671;27;20023;-66
2021/09/29 00:44:37;;;;;;;20.83;16.25;;;;;;;17.22;89.46;100763.88;5133598;27;20114;-66
2021/09/29 00:47:03;;;;;;;23.33;16.50;;;;;;;17.25;90.37;100766.28;5132305;27;20439;-66
2021/09/29 00:49:28;;;;;;;22.88;17.25;;;;;;;17.19;91.45;100769.63;5133522;27;20392;-66
2021/09/29 00:51:56;;;;;;;29.23;21.40;;;;;;;17.24;92.67;100763.72;5133460;27;20026;-66
2021/09/29 00:54:28;;;;;;;27.98;20.95;;;;;;;17.26;93.49;100767.13;5132053;27;20026;-66
2021/09/29 00:56:54;;;;;;;30.88;21.25;;;;;;;17.19;93.64;100757.97;5133403;27;20031;-66
2021/09/29 00:59:20;;;;;;;27.38;20.55;;;;;;;17.14;94.27;100758.47;5133650;27;20458;-66
2021/09/29 01:01:46;;;;;;;29.40;19.83;;;;;;;17.10;94.77;100750.81;5132216;27;20019;-66
2021/09/29 01:04:13;;;;;;;28.15;20.60;;;;;;;17.10;94.88;100750.81;5131770;27;20030;-66
2021/09/29 01:06:50;;;;;;;37.15;21.27;;;;;;;17.08;95.35;100752.84;5132917;27;20371;-66
2021/09/29 01:09:43;;;;;;;31.10;20.80;;;;;;;17.05;95.52;100751.31;5133455;27;20500;-66
2021/09/29 01:12:21;;;;;;;33.80;21.92;;;;;;;17.03;95.92;100749.78;5133219;27;20042;-66
2021/09/29 01:15:02;;;;;;;30.48;18.83;;;;;;;17.01;95.87;100747.25;5133242;27;20022;-66
2021/09/29 01:17:29;;;;;;;26.88;18.52;;;;;;;16.99;95.76;100743.84;5133019;27;20082;-66
2021/09/29 01:20:14;;;;;;;29.20;18.38;;;;;;;16.99;95.48;100748.44;5132927;27;20492;-66
2021/09/29 01:22:58;;;;;;;31.10;19.23;;;;;;;17.02;95.13;100745.38;5132708;27;20113;-66
2021/09/29 01:25:39;;;;;;;26.48;19.05;;;;;;;16.96;95.06;100741.47;5132909;27;20074;-66
2021/09/29 01:28:06;;;;;;;25.90;17.23;;;;;;;16.92;94.76;100737.41;5132872;27;20054;-66
2021/09/29 01:30:35;;;;;;;22.58;16.58;;;;;;;16.96;94.55;100746.06;5132777;27;20030;-66
2021/09/29 01:33:01;;;;;;;27.15;16.67;;;;;;;16.95;94.56;100738.91;5132587;27;20030;-66
2021/09/29 01:35:27;;;;;;;23.88;15.82;;;;;;;16.91;93.69;100737.56;5132441;27;20023;-66
2021/09/29 01:37:53;;;;;;;25.80;15.60;;;;;;;16.92;93.88;100736.53;5131243;27;20060;-66
2021/09/29 01:40:19;;;;;;;21.10;15.30;;;;;;;16.91;93.76;100738.41;5132646;27;20035;-66
2021/09/29 01:42:44;;;;;;;21.45;14.80;;;;;;;16.90;93.53;100744.00;5132707;27;20023;-66
2021/09/29 01:45:10;;;;;;;22.35;16.02;;;;;;;16.86;93.73;100739.94;5132511;27;20019;-66
2021/09/29 01:47:36;;;;;;;24.95;15.07;;;;;;;16.85;93.78;100738.22;5131340;27;20474;-66
2021/09/29 01:50:04;;;;;;;22.13;15.70;;;;;;;16.85;94.16;100740.91;5130962;27;20082;-66
2021/09/29 01:52:34;;;;;;;23.08;15.57;;;;;;;16.83;94.24;100735.66;5131008;27;20015;-66
2021/09/29 01:55:00;;;;;;;23.23;16.02;;;;;;;16.83;94.42;100748.38;5132312;27;20072;-66
2021/09/29 01:57:26;;;;;;;26.85;15.55;;;;;;;16.84;94.36;100742.81;5132335;27;20042;-66
2021/09/29 01:59:52;;;;;;;24.83;15.27;;;;;;;16.82;94.49;100743.97;5130840;27;20118;-66
2021/09/29 02:02:18;;;;;;;25.13;15.55;;;;;;;16.82;94.69;100735.81;5132432;27;20023;-66
2021/09/29 02:04:45;;;;;;;26.70;16.60;;;;;;;16.78;95.00;100748.88;5132193;27;20087;-66
2021/09/29 02:07:10;;;;;;;26.00;16.42;;;;;;;16.76;95.13;100748.19;5131836;27;20031;-66
2021/09/29 02:09:36;;;;;;;29.33;16.83;;;;;;;16.81;94.80;100747.69;5131949;27;20019;-66
2021/09/29 02:12:01;;;;;;;25.88;16.63;;;;;;;16.78;95.08;100750.72;5130212;27;20482;-66
2021/09/29 02:14:27;;;;;;;28.67;17.40;;;;;;;16.74;95.92;100743.94;5131787;27;20110;-66
2021/09/29 02:16:54;;;;;;;30.42;17.58;;;;;;;16.76;96.58;100755.44;5130140;27;20130;-66
2021/09/29 02:19:21;;;;;;;31.58;17.95;;;;;;;16.71;97.11;100749.69;5130386;27;20125;-65
2021/09/29 02:21:47;;;;;;;29.38;18.27;;;;;;;16.66;97.12;100746.59;5130524;27;20485;-66
2021/09/29 02:24:12;;;;;;;30.27;17.77;;;;;;;16.66;97.30;100747.47;5130500;27;20279;-66
2021/09/29 02:26:38;;;;;;;25.90;17.67;;;;;;;16.71;95.93;100744.28;5130271;27;20027;-66
2021/09/29 02:29:05;;;;;;;28.63;16.73;;;;;;;16.64;96.17;100741.34;5131466;27;20043;-66
2021/09/29 02:31:32;;;;;;;28.45;17.33;;;;;;;16.60;96.79;100745.41;5130043;27;20056;-66
2021/09/29 02:33:57;;;;;;;30.63;18.05;;;;;;;16.58;97.11;100738.47;5131508;27;20031;-66
2021/09/29 02:36:23;;;;;;;24.88;17.35;;;;;;;16.58;97.09;100741.16;5131504;27;20071;-66
2021/09/29 02:38:51;;;;;;;29.50;18.08;;;;;;;16.59;96.82;100745.56;5130038;27;20027;-66
2021/09/29 02:41:18;;;;;;;27.85;16.75;;;;;;;16.57;97.02;100750.31;5130452;27;20019;-66
2021/09/29 02:43:44;;;;;;;34.03;19.17;;;;;;;16.51;97.04;100732.00;5131590;27;20027;-66
2021/09/29 02:46:09;;;;;;;29.13;17.80;;;;;;;16.52;97.26;100744.53;5131208;27;20027;-66
2021/09/29 02:48:34;;;;;;;28.75;17.52;;;;;;;16.51;96.99;100740.94;5131040;27;20056;-66
2021/09/29 02:51:00;;;;;;;27.98;18.02;;;;;;;16.52;97.13;100741.81;5131500;27;20035;-66
2021/09/29 02:53:28;;;;;;;35.00;18.40;;;;;;;16.50;97.36;100741.97;5130610;27;20489;-66
2021/09/29 02:55:59;;;;;;;30.38;18.15;;;;;;;16.50;97.44;100747.38;5131132;27;20042;-66
2021/09/29 02:58:25;;;;;;;33.40;18.08;;;;;;;16.48;97.38;100746.69;5131149;27;20477;-66
2021/09/29 03:00:53;;;;;;;28.17;18.08;;;;;;;16.51;97.14;100740.94;5129239;27;20019;-66
2021/09/29 03:03:19;;;;;;;28.15;17.55;;;;;;;16.49;97.14;100739.44;5130416;27;20072;-66
2021/09/29 03:05:45;;;;;;;30.35;16.95;;;;;;;16.50;96.93;100738.41;5129018;27;20534;-66
2021/09/29 03:08:12;;;;;;;28.13;17.95;;;;;;;16.49;96.63;100740.28;5130368;27;20029;-65
2021/09/29 03:10:40;;;;;;;31.02;18.15;;;;;;;16.47;96.79;100736.88;5130691;27;20079;-66
2021/09/29 03:13:06;;;;;;;26.05;16.95;;;;;;;16.47;96.59;100739.59;5130627;27;20026;-66
2021/09/29 03:15:31;;;;;;;28.27;17.80;;;;;;;16.50;96.30;100738.41;5130123;27;20272;-66
2021/09/29 03:17:56;;;;;;;26.10;18.05;;;;;;;16.49;96.14;100737.56;5128587;27;20043;-66
2021/09/29 03:20:24;;;;;;;32.00;18.17;;;;;;;16.45;96.29;100735.34;5127565;28;20022;-66
2021/09/29 03:22:50;;;;;;;32.20;19.25;;;;;;;16.49;96.53;100739.44;5130219;27;20904;-66
2021/09/29 03:25:16;;;;;;;33.67;18.20;;;;;;;16.47;96.43;100733.34;5130684;27;20084;-66
2021/09/29 03:27:42;;;;;;;36.63;18.67;;;;;;;16.47;96.50;100734.16;5130260;27;20110;-66
2021/09/29 03:30:08;;;;;;;29.92;18.73;;;;;;;16.44;96.47;100736.38;5130540;27;20107;-66
2021/09/29 03:32:33;;;;;;;32.20;17.85;;;;;;;16.45;96.59;100738.91;5130727;27;20114;-66
2021/09/29 03:34:59;;;;;;;30.58;18.45;;;;;;;16.46;96.61;100743.31;5129377;27;20072;-66
2021/09/29 03:37:24;;;;;;;36.92;18.80;;;;;;;16.41;96.20;100729.38;5130652;27;20020;-66
2021/09/29 03:39:50;;;;;;;35.20;18.73;;;;;;;16.41;95.85;100742.06;5129291;27;20023;-66
2021/09/29 03:42:15;;;;;;;30.27;18.73;;;;;;;16.42;95.62;100736.50;5130979;27;20043;-66
2021/09/29 03:44:41;;;;;;;33.80;18.33;;;;;;;16.40;96.02;100730.38;5130322;27;20038;-66
2021/09/29 03:47:06;;;;;;;33.53;18.92;;;;;;;16.39;96.46;100733.25;5128872;27;20023;-66
2021/09/29 03:49:32;;;;;;;36.08;18.50;;;;;;;16.40;96.42;100740.34;5127824;27;20027;-66
2021/09/29 03:51:57;;;;;;;32.42;18.63;;;;;;;16.38;96.55;100736.97;5127576;28;20057;-65
2021/09/29 03:54:22;;;;;;;37.17;18.88;;;;;;;16.38;96.47;100731.56;5128958;27;20027;-66
2021/09/29 03:56:48;;;;;;;36.40;19.58;;;;;;;16.37;96.58;100728.00;5129196;27;20022;-66
2021/09/29 03:59:14;;;;;;;35.80;19.98;;;;;;;16.34;96.41;100730.19;5128534;27;20106;-66
2021/09/29 04:01:39;;;;;;;32.70;18.30;;;;;;;16.33;96.42;100723.06;5127439;28;20037;-66
2021/09/29 04:04:05;;;;;;;34.28;19.83;;;;;;;16.34;96.25;100727.50;5128995;27;20027;-66
2021/09/29 04:06:30;;;;;;;35.25;19.23;;;;;;;16.30;96.54;100723.38;5130550;27;20079;-66
2021/09/29 04:08:56;;;;;;;31.60;18.98;;;;;;;16.29;96.86;100727.97;5132460;27;20023;-66
2021/09/29 04:11:21;;;;;;;32.65;19.10;;;;;;;16.28;96.90;100723.53;5131245;27;20124;-65
2021/09/29 04:13:47;;;;;;;31.42;18.40;;;;;;;16.28;96.78;100722.72;5131549;27;20030;-66
2021/09/29 04:16:13;;;;;;;30.85;18.20;;;;;;;16.26;96.64;100727.44;5132731;27;20031;-66
2021/09/29 04:18:38;;;;;;;34.83;18.83;;;;;;;16.27;96.59;100731.81;5132129;27;20047;-66
2021/09/29 04:21:04;;;;;;;33.30;18.40;;;;;;;16.22;96.35;100728.78;5132492;27;20462;-66
2021/09/29 04:23:31;;;;;;;29.85;17.45;;;;;;;16.20;96.62;100728.94;5132113;27;20031;-66
2021/09/29 04:25:58;;;;;;;30.73;18.13;;;;;;;16.21;96.49;100733.31;5112058;28;20509;-66
2021/09/29 04:28:24;;;;;;;29.02;16.60;;;;;;;16.23;96.38;100730.47;5111657;28;20031;-66
2021/09/29 04:30:49;;;;;;;30.23;18.33;;;;;;;16.20;96.27;100734.34;5112161;28;20028;-66
2021/09/29 04:33:15;;;;;;;30.10;16.50;;;;;;;16.24;96.17;100734.84;5116775;27;20026;-67
2021/09/29 04:35:41;;;;;;;28.45;16.23;;;;;;;16.24;96.18;100740.25;5132160;27;20106;-66
2021/09/29 04:38:07;;;;;;;32.75;16.38;;;;;;;16.22;95.58;100732.31;5131991;27;20517;-66
2021/09/29 04:40:32;;;;;;;32.65;16.85;;;;;;;16.25;95.65;100737.41;5130994;27;20027;-66
2021/09/29 04:42:58;;;;;;;30.33;16.25;;;;;;;16.23;95.54;100739.44;5132233;27;20022;-66
2021/09/29 04:45:23;;;;;;;27.02;15.80;;;;;;;16.22;95.29;100732.31;5132166;27;20015;-66
2021/09/29 04:47:49;;;;;;;26.27;15.63;;;;;;;16.21;95.45;100741.44;5132330;27;20114;-66
2021/09/29 04:50:14;;;;;;;29.95;16.27;;;;;;;16.21;95.56;100735.19;5131159;27;20023;-66
2021/09/29 04:52:40;;;;;;;28.08;16.60;;;;;;;16.22;95.80;100740.44;5132176;27;20486;-66
2021/09/29 04:55:06;;;;;;;28.30;16.25;;;;;;;16.21;95.31;100730.63;5132412;27;20023;-66
2021/09/29 04:57:32;;;;;;;28.77;15.93;;;;;;;16.20;95.14;100731.63;5131671;27;20035;-66
2021/09/29 04:59:59;;;;;;;30.40;16.83;;;;;;;16.23;94.76;100744.00;5132613;27;20039;-66
2021/09/29 05:02:25;;;;;;;25.83;14.68;;;;;;;16.23;95.18;100734.03;5133410;27;20030;-66
2021/09/29 05:04:50;;;;;;;25.42;15.10;;;;;;;16.24;94.95;100748.38;5133597;27;20474;-65
2021/09/29 05:07:19;;;;;;;28.75;15.10;;;;;;;16.23;94.96;100750.28;5133084;27;20157;-65
2021/09/29 05:09:46;;;;;;;30.90;16.05;;;;;;;16.19;95.02;100742.63;5131538;27;20050;-66
2021/09/29 05:12:21;;;;;;;31.40;15.45;;;;;;;16.23;94.99;100744.84;5131213;27;20473;-66
2021/09/29 05:14:47;;;;;;;29.90;14.48;;;;;;;16.28;94.44;100750.63;5133295;27;20056;-66
2021/09/29 05:17:12;;;;;;;26.42;14.88;;;;;;;16.21;94.71;100740.59;5132550;27;20049;-66
2021/09/29 05:19:38;;;;;;;24.95;13.27;;;;;;;16.25;95.24;100750.94;5133086;27;20486;-65
2021/09/29 05:22:06;;;;;;;26.75;14.55;;;;;;;16.23;94.71;100744.00;5131436;27;20023;-66
2021/09/29 05:24:31;;;;;;;24.58;15.10;;;;;;;16.25;94.73;100755.53;5132728;27;20121;-66
2021/09/29 05:26:57;;;;;;;25.23;13.85;;;;;;;16.24;94.67;100751.09;5131337;27;20118;-66
2021/09/29 05:29:22;;;;;;;26.23;14.05;;;;;;;16.22;94.42;100753.13;5132664;27;20089;-66
2021/09/29 05:31:48;;;;;;;25.63;13.73;;;;;;;16.26;94.08;100759.91;5131640;27;20141;-66
2021/09/29 05:34:13;;;;;;;25.77;14.45;;;;;;;16.24;94.46;100751.94;5132657;27;20019;-65
2021/09/29 05:36:41;;;;;;;23.73;14.40;;;;;;;16.25;94.23;100752.81;5132609;27;20023;-66
2021/09/29 05:39:07;;;;;;;26.23;14.38;;;;;;;16.27;94.36;100759.75;5132405;27;20022;-66
2021/09/29 05:41:32;;;;;;;26.60;14.00;;;;;;;16.25;94.49;100758.22;5131092;27;20339;-66
2021/09/29 05:43:58;;;;;;;23.60;14.52;;;;;;;16.27;94.15;100764.31;5132410;27;20035;-66
2021/09/29 05:46:23;;;;;;;24.70;14.50;;;;;;;16.27;94.64;100761.59;5132275;27;20080;-65
2021/09/29 05:48:49;;;;;;;25.95;14.40;;;;;;;16.28;94.90;100763.31;5131342;27;20022;-66
2021/09/29 05:51:14;;;;;;;23.65;13.98;;;;;;;16.30;95.03;100764.84;5132348;27;20015;-66
2021/09/29 05:53:40;;;;;;;25.92;14.52;;;;;;;16.31;95.25;100773.84;5132134;27;20026;-66
2021/09/29 05:56:06;;;;;;;23.13;14.45;;;;;;;16.31;95.18;100768.41;5132140;27;20091;-66
2021/09/29 05:58:31;;;;;;;23.25;14.50;;;;;;;16.32;95.17;100767.41;5132140;27;20102;-66
2021/09/29 06:00:57;;;;;;;23.92;14.65;;;;;;;16.34;95.21;100766.22;5132110;27;20103;-66
2021/09/29 06:03:22;;;;;;;22.40;13.82;;;;;;;16.39;95.33;100765.75;5132452;27;20076;-66
2021/09/29 06:05:48;;;;;;;22.92;13.70;;;;;;;16.41;95.34;100766.44;5131846;27;20490;-66
2021/09/29 06:08:14;;;;;;;19.98;13.43;;;;;;;16.43;95.60;100761.72;5131793;27;20482;-66
2021/09/29 06:10:39;;;;;;;21.15;13.20;;;;;;;16.48;95.36;100775.66;5131844;27;20106;-66
2021/09/29 06:13:05;;;;;;;23.02;13.88;;;;;;;16.49;95.38;100766.50;5131964;27;20031;-66
2021/09/29 06:15:33;;;;;;;21.77;13.52;;;;;;;16.52;95.52;100769.75;5130592;27;20034;-65
2021/09/29 06:18:00;;;;;;;23.45;13.75;;;;;;;16.59;95.37;100761.81;5131693;27;20048;-66
2021/09/29 06:20:33;;;;;;;25.35;14.70;;;;;;;16.66;95.17;100776.41;5131854;27;20386;-66
2021/09/29 06:23:00;;;;;;;20.10;13.93;;;;;;;16.72;95.13;100781.16;5131512;27;20441;-65
2021/09/29 06:25:26;;;;;;;25.55;14.00;;;;;;;16.73;94.83;100780.19;5131628;27;20065;-66
2021/09/29 06:27:52;;;;;;;21.20;13.50;;;;;;;16.74;95.00;100776.44;5130158;27;20070;-66
2021/09/29 06:30:18;;;;;;;20.73;13.55;;;;;;;16.79;95.32;100783.06;5131247;27;20023;-66
2021/09/29 06:32:44;;;;;;;19.33;13.80;;;;;;;16.79;95.07;100783.06;5131584;27;20027;-66
2021/09/29 06:35:10;;;;;;;21.42;14.18;;;;;;;16.83;94.99;100778.19;5131522;27;20462;-66
2021/09/29 06:37:39;;;;;;;22.50;13.10;;;;;;;16.85;94.86;100787.84;5131074;27;20034;-66
2021/09/29 06:40:23;;;;;;;22.30;13.75;;;;;;;16.88;95.03;100786.66;5131528;27;20657;-66
2021/09/29 06:42:49;;;;;;;20.55;13.52;;;;;;;16.90;94.77;100781.94;5131392;27;20068;-66
2021/09/29 06:45:15;;;;;;;22.65;14.93;;;;;;;16.93;94.53;100792.44;5131534;27;20633;-66
2021/09/29 06:47:41;;;;;;;20.60;13.98;;;;;;;16.98;94.81;100796.34;5129907;27;20046;-66
2021/09/29 06:50:08;;;;;;;23.17;14.13;;;;;;;16.97;94.29;100799.22;5131078;27;20027;-66
2021/09/29 06:52:35;;;;;;;20.85;14.20;;;;;;;16.97;94.42;100791.09;5129947;27;20013;-66
2021/09/29 06:55:01;;;;;;;22.90;14.25;;;;;;;16.99;94.31;100792.63;5131323;27;20497;-66
2021/09/29 06:57:26;;;;;;;19.42;13.48;;;;;;;16.97;94.39;100793.81;5131156;27;20015;-66
2021/09/29 06:59:52;;;;;;;22.63;15.27;;;;;;;17.05;94.18;100799.25;5131521;27;20509;-65
2021/09/29 07:02:17;;;;;;;20.92;14.27;;;;;;;17.06;93.82;100804.50;5131197;27;20522;-66
2021/09/29 07:04:42;;;;;;;20.95;14.63;;;;;;;17.07;93.64;100798.09;5130947;27;20023;-66
2021/09/29 07:07:08;;;;;;;23.30;14.25;;;;;;;17.13;93.95;100807.41;5130706;27;20023;-65
2021/09/29 07:09:33;;;;;;;23.70;14.25;;;;;;;17.14;94.00;100806.41;5130986;27;20030;-66
2021/09/29 07:11:59;;;;;;;21.10;15.20;;;;;;;17.19;93.99;100810.31;5130957;27;20015;-66
2021/09/29 07:14:24;;;;;;;22.75;14.60;;;;;;;17.22;94.18;100803.72;5131293;27;20096;-66
2021/09/29 07:16:51;;;;;;;23.00;15.10;;;;;;;17.26;94.36;100811.38;5129414;27;20383;-66
2021/09/29 07:19:17;;;;;;;33.42;16.27;;;;;;;17.27;94.12;100812.19;5130803;27;20038;-66
2021/09/29 07:21:43;;;;;;;24.80;15.40;;;;;;;17.29;94.02;100810.19;5131146;27;20052;-66
2021/09/29 07:24:08;;;;;;;21.45;14.68;;;;;;;17.35;94.14;100825.78;5129632;28;20038;-66
2021/09/29 07:26:34;;;;;;;23.73;15.52;;;;;;;17.39;94.35;100819.00;5130919;27;20023;-66
2021/09/29 07:29:00;;;;;;;24.00;15.88;;;;;;;17.41;94.44;100825.13;5128889;27;20501;-66
2021/09/29 07:31:27;;;;;;;28.15;17.88;;;;;;;17.44;93.82;100827.50;5129676;27;20098;-66
2021/09/29 07:33:52;;;;;;;21.75;16.20;;;;;;;17.45;94.11;100826.53;5129436;27;20046;-66
2021/09/29 07:36:18;;;;;;;27.45;16.40;;;;;;;17.49;93.86;100830.59;5129515;28;20459;-66
2021/09/29 07:38:43;;;;;;;26.23;18.50;;;;;;;17.52;94.38;100830.25;5128963;27;20064;-66
2021/09/29 07:41:09;;;;;;;28.38;18.45;;;;;;;17.56;94.68;100831.63;5132746;27;20054;-66
2021/09/29 07:43:35;;;;;;;33.67;19.30;;;;;;;17.58;94.96;100829.59;5132356;27;20462;-66
2021/09/29 07:46:00;;;;;;;33.45;19.88;;;;;;;17.64;95.44;100831.66;5133297;27;20042;-66
2021/09/29 07:48:26;;;;;;;32.85;20.48;;;;;;;17.67;95.49;100831.31;5131452;27;20506;-66
2021/09/29 07:50:51;;;;;;;35.28;20.38;;;;;;;17.68;95.72;100831.16;5133397;27;20027;-66
2021/09/29 07:53:20;;;;;;;30.90;19.88;;;;;;;17.74;95.95;100833.16;5133616;27;20111;-66
2021/09/29 07:55:45;;;;;;;33.65;20.30;;;;;;;17.77;95.90;100832.00;5131698;27;20026;-66
2021/09/29 07:58:11;;;;;;;31.85;21.15;;;;;;;17.78;95.95;100825.56;5132833;27;20382;-66
2021/09/29 08:00:36;;;;;;;33.35;19.98;;;;;;;17.83;95.79;100839.44;5133190;27;20517;-66
2021/09/29 08:03:02;;;;;;;39.83;21.50;;;;;;;17.87;95.90;100832.69;5131461;27;20420;-66
2021/09/29 08:05:30;;;;;;;40.45;22.77;;;;;;;17.89;96.08;100839.63;5126261;27;20027;-66
2021/09/29 08:07:55;;;;;;;36.38;21.85;;;;;;;17.91;96.48;100834.91;5130560;27;20026;-66
2021/09/29 08:10:21;;;;;;;34.33;22.35;;;;;;;17.94;96.48;100834.56;5132327;27;20031;-66
2021/09/29 08:12:46;;;;;;;34.78;21.95;;;;;;;17.97;96.38;100838.78;5132138;27;20030;-66
2021/09/29 08:15:13;;;;;;;45.75;24.98;;;;;;;17.99;96.99;100837.59;5132057;27;20065;-66
2021/09/29 08:17:44;;;;;;;38.17;23.15;;;;;;;17.99;96.92;100836.75;5132018;27;20136;-66
2021/09/29 08:20:19;;;;;;;37.85;20.77;;;;;;;18.02;97.50;100847.25;5132131;27;20122;-66
2021/09/29 08:22:48;;;;;;;35.42;21.35;;;;;;;18.03;96.94;100841.66;5132086;27;20030;-66
2021/09/29 08:25:42;;;;;;;39.50;22.27;;;;;;;18.06;97.21;100845.94;5131936;27;20023;-66
2021/09/29 08:28:13;;;;;;;42.70;22.60;;;;;;;18.08;97.53;100842.00;5130256;27;20027;-62
2021/09/29 08:31:01;;;;;;;45.05;24.77;;;;;;;18.12;98.00;100853.38;5132182;27;20395;-62
2021/09/29 08:38:47;;;;;;;51.83;24.48;;;;;;;18.21;100.00;100851.53;5131892;27;20578;-63
2021/09/29 08:43:49;;;;;;;45.90;25.02;;;;;;;18.22;100.00;100848.63;5131783;27;20085;-62
2021/09/29 08:46:24;;;;;;;43.95;25.63;;;;;;;18.26;100.00;100844.56;5131893;27;20056;-62
2021/09/29 08:51:42;;;;;;;48.47;25.90;;;;;;;18.32;100.00;100846.59;5131046;27;20031;-62
2021/09/29 09:16:23;;;;;;;50.90;26.52;;;;;;;18.55;100.00;100854.91;5131496;27;19967;-62
2021/09/29 09:18:49;;;;;;;47.15;26.23;;;;;;;18.59;100.00;100862.53;5130884;27;20087;-63
2021/09/29 09:21:17;;;;;;;45.58;25.42;;;;;;;18.61;100.00;100865.94;5129723;27;20038;-63
2021/09/29 09:23:44;;;;;;;48.90;27.65;;;;;;;18.64;100.00;100862.03;5130968;27;20027;-62
2021/09/29 09:26:23;;;;;;;44.72;25.85;;;;;;;18.67;100.00;100861.66;5129130;27;20026;-63
2021/09/29 09:28:50;;;;;;;41.88;26.20;;;;;;;18.68;100.00;100864.22;5131773;27;20027;-62
2021/09/29 09:31:19;;;;;;;44.85;26.05;;;;;;;18.75;100.00;100870.66;5131908;27;20027;-62
2021/09/29 09:33:52;;;;;;;45.53;27.35;;;;;;;18.76;100.00;100871.50;5130803;27;20035;-64
2021/09/29 09:36:35;;;;;;;40.65;24.83;;;;;;;18.75;100.00;100867.94;5131894;27;20031;-63
2021/09/29 09:39:08;;;;;;;43.03;26.97;;;;;;;18.75;100.00;100862.50;5131988;27;20015;-63
2021/09/29 09:41:34;;;;;;;41.90;26.00;;;;;;;18.75;100.00;100859.78;5131496;27;20470;-62
2021/09/29 09:44:02;;;;;;;42.42;26.35;;;;;;;18.80;100.00;100859.25;5131740;27;20023;-63
2021/09/29 09:46:28;;;;;;;43.00;25.30;;;;;;;18.83;100.00;100869.78;5131884;27;20027;-63
2021/09/29 09:49:08;;;;;;;43.38;26.42;;;;;;;18.86;100.00;100861.28;5131401;27;20448;-62
2021/09/29 09:51:46;;;;;;;41.72;25.35;;;;;;;18.90;100.00;100862.63;5129401;27;20030;-62
2021/09/29 09:54:12;;;;;;;43.42;25.88;;;;;;;18.92;100.00;100869.56;5131438;27;20060;-62
2021/09/29 09:56:41;;;;;;;43.25;26.80;;;;;;;18.97;100.00;100869.91;5131334;27;20075;-63
2021/09/29 09:59:08;;;;;;;41.95;25.92;;;;;;;18.99;100.00;100854.25;5131225;27;20280;-63
2021/09/29 10:01:34;;;;;;;46.65;28.45;;;;;;;19.02;100.00;100848.47;5131201;27;20078;-63
2021/09/29 10:04:12;;;;;;;48.25;27.52;;;;;;;19.07;100.00;100867.84;5129783;27;20525;-62
2021/09/29 10:06:38;;;;;;;41.85;27.05;;;;;;;19.09;100.00;100860.34;5129669;27;20023;-62
2021/09/29 10:09:11;;;;;;;45.55;26.98;;;;;;;19.12;100.00;100862.69;5130861;27;20035;-63
2021/09/29 10:14:40;;;;;;;46.22;28.80;;;;;;;19.20;99.98;100857.25;5101248;27;20172;-62
2021/09/29 10:23:15;;;;;;;43.25;27.35;;;;;;;19.32;100.00;100855.84;5130801;27;20463;-63
2021/09/29 10:28:40;;;;;;;44.90;27.52;;;;;;;19.43;99.13;100865.47;5130871;27;20153;-63
2021/09/29 10:34:13;;;;;;;39.88;26.75;;;;;;;19.50;98.32;100853.72;5130738;27;20033;-63
2021/09/29 10:36:59;;;;;;;47.13;28.95;;;;;;;19.54;98.04;100852.31;5127863;27;20492;-63
2021/09/29 10:45:30;;;;;;;43.78;28.98;;;;;;;19.61;97.83;100849.75;5112667;27;20050;-62
2021/09/29 10:48:24;;;;;;;41.60;27.07;;;;;;;19.64;97.63;100852.09;5130375;27;20031;-62
2021/09/29 11:11:12;;;;;;;40.28;28.90;;;;;;;20.12;95.59;100830.00;5130394;27;20038;-62
2021/09/29 11:30:24;;;;;;;37.20;26.67;;;;;;;20.61;92.42;100817.59;5129953;27;20031;-63
2021/09/29 11:32:56;;;;;;;42.10;28.20;;;;;;;20.71;91.68;100815.41;5129834;27;20276;-63
2021/09/29 12:11:18;;;;;;;38.03;25.95;;;;;;;20.81;87.86;100804.22;5129480;27;20035;-62
2021/09/29 12:16:37;;;;;;;36.55;24.48;;;;;;;20.86;87.19;100797.16;5129770;27;20031;-62
2021/09/29 12:19:26;;;;;;;33.83;23.83;;;;;;;20.92;86.93;100798.31;5129201;27;20372;-62
2021/09/29 12:21:54;;;;;;;39.45;26.15;;;;;;;20.92;86.88;100796.41;5127885;28;20043;-62
2021/09/29 12:24:32;;;;;;;37.42;25.30;;;;;;;20.98;86.58;100805.72;5129616;27;20068;-62
2021/09/29 12:27:01;;;;;;;36.53;25.63;;;;;;;20.95;86.91;100806.97;5130184;27;20025;-62
2021/09/29 12:29:34;;;;;;;36.75;25.75;;;;;;;20.97;86.61;100814.97;5132974;27;20478;-63
2021/09/29 12:32:27;;;;;;;39.92;25.88;;;;;;;20.92;86.10;100804.59;5133080;27;20053;-62
2021/09/29 12:37:39;;;;;;;;;;;;;;;20.95;85.99;100808.84;5133632;27;20440;-62
2021/09/29 12:40:05;;;;;;;43.92;26.23;;;;;;;20.96;86.17;100803.19;5131263;27;19911;-63
2021/09/29 12:42:33;;;;;;;42.25;27.08;;;;;;;21.00;85.80;100811.84;5132700;27;20034;-63
2021/09/29 12:44:59;;;;;;;34.67;24.77;;;;;;;20.99;85.21;100816.47;5131491;27;20039;-63
2021/09/29 12:47:36;;;;;;;37.60;25.30;;;;;;;20.98;84.49;100820.22;5132562;27;20023;-63
2021/09/29 12:50:10;;;;;;;33.15;24.58;;;;;;;20.95;84.01;100811.56;5132789;27;20080;-63
2021/09/29 12:52:37;;;;;;;;;;;;;;;20.94;83.69;100813.47;5131498;27;20113;-63
2021/09/29 12:55:04;;;;;;;32.30;23.95;;;;;;;20.94;84.09;100812.59;5132678;27;19915;-62
2021/09/29 12:57:30;;;;;;;31.92;24.80;;;;;;;20.95;84.41;100814.28;5131117;27;20054;-63
2021/09/29 13:00:00;;;;;;;38.65;26.50;;;;;;;20.93;84.84;100816.34;5132455;27;20064;-63
2021/09/29 13:02:25;;;;;;;35.80;25.40;;;;;;;20.93;85.45;100810.91;5132602;27;20091;-63
2021/09/29 13:04:52;;;;;;;38.53;26.63;;;;;;;20.95;86.03;100817.03;5132206;27;20035;-63
2021/09/29 13:07:18;;;;;;;33.95;24.95;;;;;;;20.94;86.62;100808.00;5131935;27;20046;-63
2021/09/29 13:09:43;;;;;;;39.30;25.63;;;;;;;20.96;86.45;100805.91;5132239;27;20416;-62
2021/09/29 13:12:10;;;;;;;33.30;24.27;;;;;;;20.98;86.20;100806.59;5132876;27;20027;-63
2021/09/29 13:14:35;;;;;;;34.92;23.52;;;;;;;20.99;85.78;100802.00;5132256;27;20105;-63
2021/09/29 13:17:01;;;;;;;32.97;23.88;;;;;;;21.03;84.46;100800.56;5130456;27;20143;-62
2021/09/29 13:19:33;;;;;;;33.42;22.73;;;;;;;20.98;83.21;100786.66;5132113;27;20386;-63
2021/09/29 13:22:05;;;;;;;31.13;22.75;;;;;;;21.09;82.90;100806.09;5131694;27;20428;-63
2021/09/29 13:35:11;;;;;;;29.90;22.63;;;;;;;21.18;81.69;100801.41;5107536;27;20049;-63